sensor_id;sensor_type;location;lat;lon;timestamp;temperature;humidity
21672;DHT22;10997;52.242;8.168;2022-08-21T00:03:14;15.20;99.90
21672;DHT22;10997;52.242;8.168;2022-08-21T00:08:18;15.20;99.90
21672;DHT22;10997;52.242;8.168;2022-08-21T00:13:19;15.20;99.90
21672;DHT22;10997;52.242;8.168;2022-08-21T00:18:20;15.20;99.90
21672;DHT22;10997;52.242;8.168;2022-08-21T00:23:21;15.00;99.90
21672;DHT22;10997;52.242;8.168;2022-08-21T00:28:22;15.00;99.90
21672;DHT22;10997;52.242;8.168;2022-08-21T00:33:24;15.10;99.90
21672;DHT22;10997;52.242;8.168;2022-08-21T00:38:25;15.20;99.90
21672;DHT22;10997;52.242;8.168;2022-08-21T00:43:37;15.30;99.90
21672;DHT22;10997;52.242;8.168;2022-08-21T00:48:39;15.40;99.90
21672;DHT22;10997;52.242;8.168;2022-08-21T00:53:41;15.50;99.90
21672;DHT22;10997;52.242;8.168;2022-08-21T00:58:43;15.70;99.90
21672;DHT22;10997;52.242;8.168;2022-08-21T01:03:44;15.70;99.90
21672;DHT22;10997;52.242;8.168;2022-08-21T01:08:47;15.70;99.90
21672;DHT22;10997;52.242;8.168;2022-08-21T01:13:48;15.60;99.90
21672;DHT22;10997;52.242;8.168;2022-08-21T01:18:50;15.60;99.90
21672;DHT22;10997;52.242;8.168;2022-08-21T01:23:53;15.60;99.90
21672;DHT22;10997;52.242;8.168;2022-08-21T01:29:15;15.70;99.90
21672;DHT22;10997;52.242;8.168;2022-08-21T01:34:17;15.60;99.90
21672;DHT22;10997;52.242;8.168;2022-08-21T01:39:18;15.50;99.90
21672;DHT22;10997;52.242;8.168;2022-08-21T01:44:21;15.50;99.90
21672;DHT22;10997;52.242;8.168;2022-08-21T01:49:25;15.40;99.90
21672;DHT22;10997;52.242;8.168;2022-08-21T01:54:26;15.40;99.90
21672;DHT22;10997;52.242;8.168;2022-08-21T01:59:27;15.30;99.90
21672;DHT22;10997;52.242;8.168;2022-08-21T02:04:28;15.40;99.90
21672;DHT22;10997;52.242;8.168;2022-08-21T02:09:29;15.40;99.90
21672;DHT22;10997;52.242;8.168;2022-08-21T02:14:30;15.40;99.90
21672;DHT22;10997;52.242;8.168;2022-08-21T02:19:31;15.40;99.90
21672;DHT22;10997;52.242;8.168;2022-08-21T02:24:31;15.40;99.90
21672;DHT22;10997;52.242;8.168;2022-08-21T02:29:32;15.50;99.90
21672;DHT22;10997;52.242;8.168;2022-08-21T02:34:33;15.40;99.90
21672;DHT22;10997;52.242;8.168;2022-08-21T02:39:33;15.40;99.90
21672;DHT22;10997;52.242;8.168;2022-08-21T02:44:34;15.30;99.90
21672;DHT22;10997;52.242;8.168;2022-08-21T02:49:35;15.30;99.90
21672;DHT22;10997;52.242;8.168;2022-08-21T02:54:36;15.20;99.90
21672;DHT22;10997;52.242;8.168;2022-08-21T02:59:37;15.20;99.90
21672;DHT22;10997;52.242;8.168;2022-08-21T03:04:38;15.20;99.90
21672;DHT22;10997;52.242;8.168;2022-08-21T03:09:38;15.10;99.90
21672;DHT22;10997;52.242;8.168;2022-08-21T03:14:39;15.10;99.90
21672;DHT22;10997;52.242;8.168;2022-08-21T03:19:40;15.10;99.90
21672;DHT22;10997;52.242;8.168;2022-08-21T03:24:40;15.00;99.90
21672;DHT22;10997;52.242;8.168;2022-08-21T03:29:41;15.10;99.90
21672;DHT22;10997;52.242;8.168;2022-08-21T03:34:42;15.00;99.90
21672;DHT22;10997;52.242;8.168;2022-08-21T03:39:42;15.00;99.90
21672;DHT22;10997;52.242;8.168;2022-08-21T03:44:43;15.00;99.90
21672;DHT22;10997;52.242;8.168;2022-08-21T03:49:44;14.80;99.90
21672;DHT22;10997;52.242;8.168;2022-08-21T03:54:45;14.70;99.90
21672;DHT22;10997;52.242;8.168;2022-08-21T03:59:46;14.60;99.90
21672;DHT22;10997;52.242;8.168;2022-08-21T04:04:47;14.40;99.90
21672;DHT22;10997;52.242;8.168;2022-08-21T04:09:48;14.30;99.90
21672;DHT22;10997;52.242;8.168;2022-08-21T04:14:49;14.30;99.90
21672;DHT22;10997;52.242;8.168;2022-08-21T04:19:51;14.20;99.90
21672;DHT22;10997;52.242;8.168;2022-08-21T04:24:52;14.20;99.90
21672;DHT22;10997;52.242;8.168;2022-08-21T04:29:53;14.10;99.90
21672;DHT22;10997;52.242;8.168;2022-08-21T04:35:00;14.10;99.90
21672;DHT22;10997;52.242;8.168;2022-08-21T04:40:03;14.10;99.90
21672;DHT22;10997;52.242;8.168;2022-08-21T04:45:05;14.00;99.90
21672;DHT22;10997;52.242;8.168;2022-08-21T04:50:06;14.00;99.90
21672;DHT22;10997;52.242;8.168;2022-08-21T04:55:07;13.90;99.90
21672;DHT22;10997;52.242;8.168;2022-08-21T05:00:09;13.90;99.90
21672;DHT22;10997;52.242;8.168;2022-08-21T05:05:11;13.90;99.90
21672;DHT22;10997;52.242;8.168;2022-08-21T05:10:16;14.00;99.90
21672;DHT22;10997;52.242;8.168;2022-08-21T05:15:16;14.00;99.90
21672;DHT22;10997;52.242;8.168;2022-08-21T05:20:17;14.10;99.90
21672;DHT22;10997;52.242;8.168;2022-08-21T05:25:18;14.10;99.90
21672;DHT22;10997;52.242;8.168;2022-08-21T05:30:20;14.20;99.90
21672;DHT22;10997;52.242;8.168;2022-08-21T05:35:21;14.20;99.90
21672;DHT22;10997;52.242;8.168;2022-08-21T05:40:22;14.40;99.90
21672;DHT22;10997;52.242;8.168;2022-08-21T05:45:28;14.50;99.90
21672;DHT22;10997;52.242;8.168;2022-08-21T05:50:29;14.60;99.90
21672;DHT22;10997;52.242;8.168;2022-08-21T05:55:31;14.80;99.90
21672;DHT22;10997;52.242;8.168;2022-08-21T06:00:31;15.00;99.90
21672;DHT22;10997;52.242;8.168;2022-08-21T06:05:32;15.20;99.90
21672;DHT22;10997;52.242;8.168;2022-08-21T06:10:34;15.50;99.90
21672;DHT22;10997;52.242;8.168;2022-08-21T06:15:35;15.90;99.90
21672;DHT22;10997;52.242;8.168;2022-08-21T06:20:35;16.20;99.90
21672;DHT22;10997;52.242;8.168;2022-08-21T06:25:36;16.50;99.90
21672;DHT22;10997;52.242;8.168;2022-08-21T06:30:38;16.80;99.90
21672;DHT22;10997;52.242;8.168;2022-08-21T06:35:39;17.00;99.90
21672;DHT22;10997;52.242;8.168;2022-08-21T06:40:40;17.20;99.90
21672;DHT22;10997;52.242;8.168;2022-08-21T06:45:41;17.50;99.90
21672;DHT22;10997;52.242;8.168;2022-08-21T06:50:42;17.70;99.90
21672;DHT22;10997;52.242;8.168;2022-08-21T06:55:43;18.00;99.90
21672;DHT22;10997;52.242;8.168;2022-08-21T07:00:46;18.10;99.90
21672;DHT22;10997;52.242;8.168;2022-08-21T07:05:47;18.40;99.90
21672;DHT22;10997;52.242;8.168;2022-08-21T07:10:49;18.50;99.90
21672;DHT22;10997;52.242;8.168;2022-08-21T07:15:49;18.70;99.90
21672;DHT22;10997;52.242;8.168;2022-08-21T07:20:50;18.90;99.90
21672;DHT22;10997;52.242;8.168;2022-08-21T07:25:51;19.00;99.90
21672;DHT22;10997;52.242;8.168;2022-08-21T07:30:54;19.10;99.90
21672;DHT22;10997;52.242;8.168;2022-08-21T07:35:56;19.30;99.90
21672;DHT22;10997;52.242;8.168;2022-08-21T07:40:57;19.50;99.90
21672;DHT22;10997;52.242;8.168;2022-08-21T07:46:00;19.60;99.90
21672;DHT22;10997;52.242;8.168;2022-08-21T07:51:04;19.80;99.90
21672;DHT22;10997;52.242;8.168;2022-08-21T07:56:06;19.90;99.90
21672;DHT22;10997;52.242;8.168;2022-08-21T08:01:08;20.10;99.90
21672;DHT22;10997;52.242;8.168;2022-08-21T08:06:09;20.10;99.90
21672;DHT22;10997;52.242;8.168;2022-08-21T08:11:13;20.30;99.90
21672;DHT22;10997;52.242;8.168;2022-08-21T08:16:16;20.50;99.90
21672;DHT22;10997;52.242;8.168;2022-08-21T08:21:17;20.70;99.90
21672;DHT22;10997;52.242;8.168;2022-08-21T08:26:22;20.90;99.90
21672;DHT22;10997;52.242;8.168;2022-08-21T08:31:23;21.00;99.90
21672;DHT22;10997;52.242;8.168;2022-08-21T08:36:35;21.10;99.90
21672;DHT22;10997;52.242;8.168;2022-08-21T08:41:36;21.30;99.90
21672;DHT22;10997;52.242;8.168;2022-08-21T08:46:45;21.30;99.90
21672;DHT22;10997;52.242;8.168;2022-08-21T08:52:03;21.50;99.90
21672;DHT22;10997;52.242;8.168;2022-08-21T08:57:10;21.60;99.90
21672;DHT22;10997;52.242;8.168;2022-08-21T09:02:16;21.80;99.90
21672;DHT22;10997;52.242;8.168;2022-08-21T09:28:10;22.40;99.90
21672;DHT22;10997;52.242;8.168;2022-08-21T09:33:13;22.30;99.90
21672;DHT22;10997;52.242;8.168;2022-08-21T09:38:26;22.40;99.90
21672;DHT22;10997;52.242;8.168;2022-08-21T09:43:27;22.70;99.90
21672;DHT22;10997;52.242;8.168;2022-08-21T09:48:29;22.60;99.90
21672;DHT22;10997;52.242;8.168;2022-08-21T09:53:30;23.00;99.90
21672;DHT22;10997;52.242;8.168;2022-08-21T09:58:34;23.40;99.90
21672;DHT22;10997;52.242;8.168;2022-08-21T10:03:35;23.60;99.90
21672;DHT22;10997;52.242;8.168;2022-08-21T10:08:38;24.00;99.90
21672;DHT22;10997;52.242;8.168;2022-08-21T10:30:03;24.30;99.90
21672;DHT22;10997;52.242;8.168;2022-08-21T10:35:15;24.00;99.90
21672;DHT22;10997;52.242;8.168;2022-08-21T10:40:38;24.00;99.90
21672;DHT22;10997;52.242;8.168;2022-08-21T10:46:12;24.10;99.90
21672;DHT22;10997;52.242;8.168;2022-08-21T10:51:41;24.10;99.90
21672;DHT22;10997;52.242;8.168;2022-08-21T10:56:46;24.40;99.90
21672;DHT22;10997;52.242;8.168;2022-08-21T11:07:19;25.30;99.90
21672;DHT22;10997;52.242;8.168;2022-08-21T11:12:26;25.00;99.90
21672;DHT22;10997;52.242;8.168;2022-08-21T11:23:27;25.30;99.90
21672;DHT22;10997;52.242;8.168;2022-08-21T11:28:36;25.70;99.90
21672;DHT22;10997;52.242;8.168;2022-08-21T11:33:56;26.20;99.90
21672;DHT22;10997;52.242;8.168;2022-08-21T11:50:28;26.40;99.60
21672;DHT22;10997;52.242;8.168;2022-08-21T11:55:34;26.30;99.90
21672;DHT22;10997;52.242;8.168;2022-08-21T12:00:56;25.60;98.80
21672;DHT22;10997;52.242;8.168;2022-08-21T12:06:01;25.60;98.40
21672;DHT22;10997;52.242;8.168;2022-08-21T12:16:13;26.40;98.20
21672;DHT22;10997;52.242;8.168;2022-08-21T12:21:23;26.20;97.00
21672;DHT22;10997;52.242;8.168;2022-08-21T12:26:47;25.90;97.60
21672;DHT22;10997;52.242;8.168;2022-08-21T12:32:00;26.10;96.70
21672;DHT22;10997;52.242;8.168;2022-08-21T12:37:15;26.40;96.50
21672;DHT22;10997;52.242;8.168;2022-08-21T12:58:23;26.10;93.90
21672;DHT22;10997;52.242;8.168;2022-08-21T13:03:25;25.90;93.00
21672;DHT22;10997;52.242;8.168;2022-08-21T13:08:26;25.90;91.80
21672;DHT22;10997;52.242;8.168;2022-08-21T13:13:28;25.90;92.50
21672;DHT22;10997;52.242;8.168;2022-08-21T13:18:32;26.00;92.10
21672;DHT22;10997;52.242;8.168;2022-08-21T13:23:33;26.40;92.10
21672;DHT22;10997;52.242;8.168;2022-08-21T13:28:35;26.60;91.10
21672;DHT22;10997;52.242;8.168;2022-08-21T13:33:39;26.70;91.60
21672;DHT22;10997;52.242;8.168;2022-08-21T13:38:42;26.60;91.10
21672;DHT22;10997;52.242;8.168;2022-08-21T13:43:48;26.60;91.30
21672;DHT22;10997;52.242;8.168;2022-08-21T13:48:50;26.30;90.60
21672;DHT22;10997;52.242;8.168;2022-08-21T13:53:52;25.90;90.00
21672;DHT22;10997;52.242;8.168;2022-08-21T13:58:55;25.60;90.30
21672;DHT22;10997;52.242;8.168;2022-08-21T14:04:22;25.60;91.50
21672;DHT22;10997;52.242;8.168;2022-08-21T14:14:28;25.60;91.50
21672;DHT22;10997;52.242;8.168;2022-08-21T14:19:39;25.60;91.60
21672;DHT22;10997;52.242;8.168;2022-08-21T14:24:40;25.70;91.80
21672;DHT22;10997;52.242;8.168;2022-08-21T14:29:41;25.80;92.10
21672;DHT22;10997;52.242;8.168;2022-08-21T14:34:42;25.90;92.10
21672;DHT22;10997;52.242;8.168;2022-08-21T14:39:43;25.40;90.80
21672;DHT22;10997;52.242;8.168;2022-08-21T14:44:45;25.30;91.30
21672;DHT22;10997;52.242;8.168;2022-08-21T14:49:45;25.30;91.20
21672;DHT22;10997;52.242;8.168;2022-08-21T14:54:46;25.30;91.20
21672;DHT22;10997;52.242;8.168;2022-08-21T14:59:47;25.10;91.30
21672;DHT22;10997;52.242;8.168;2022-08-21T15:04:48;25.20;91.40
21672;DHT22;10997;52.242;8.168;2022-08-21T15:09:49;25.20;90.60
21672;DHT22;10997;52.242;8.168;2022-08-21T15:14:50;25.20;91.30
21672;DHT22;10997;52.242;8.168;2022-08-21T15:19:50;25.50;90.50
21672;DHT22;10997;52.242;8.168;2022-08-21T15:24:51;25.40;91.00
21672;DHT22;10997;52.242;8.168;2022-08-21T15:29:52;25.30;90.30
21672;DHT22;10997;52.242;8.168;2022-08-21T15:34:55;25.30;90.60
21672;DHT22;10997;52.242;8.168;2022-08-21T15:39:56;25.50;90.10
21672;DHT22;10997;52.242;8.168;2022-08-21T15:44:57;25.60;89.70
21672;DHT22;10997;52.242;8.168;2022-08-21T15:49:58;25.40;90.10
21672;DHT22;10997;52.242;8.168;2022-08-21T15:54:59;25.60;89.60
21672;DHT22;10997;52.242;8.168;2022-08-21T16:00:06;25.10;89.10
21672;DHT22;10997;52.242;8.168;2022-08-21T16:05:14;24.80;89.30
21672;DHT22;10997;52.242;8.168;2022-08-21T16:10:22;24.80;89.00
21672;DHT22;10997;52.242;8.168;2022-08-21T16:15:25;25.20;91.30
21672;DHT22;10997;52.242;8.168;2022-08-21T16:20:27;25.20;90.30
21672;DHT22;10997;52.242;8.168;2022-08-21T16:25:29;25.00;90.20
21672;DHT22;10997;52.242;8.168;2022-08-21T16:30:30;24.90;90.60
21672;DHT22;10997;52.242;8.168;2022-08-21T16:35:31;25.00;91.30
21672;DHT22;10997;52.242;8.168;2022-08-21T16:40:32;25.00;91.30
21672;DHT22;10997;52.242;8.168;2022-08-21T16:45:32;24.90;91.50
21672;DHT22;10997;52.242;8.168;2022-08-21T16:50:34;24.80;91.60
21672;DHT22;10997;52.242;8.168;2022-08-21T16:55:36;24.70;91.30
21672;DHT22;10997;52.242;8.168;2022-08-21T17:00:37;24.60;91.30
21672;DHT22;10997;52.242;8.168;2022-08-21T17:05:38;24.80;91.40
21672;DHT22;10997;52.242;8.168;2022-08-21T17:10:43;25.00;91.50
21672;DHT22;10997;52.242;8.168;2022-08-21T17:15:44;25.00;91.40
21672;DHT22;10997;52.242;8.168;2022-08-21T17:20:45;24.70;91.80
21672;DHT22;10997;52.242;8.168;2022-08-21T17:25:50;24.80;92.50
21672;DHT22;10997;52.242;8.168;2022-08-21T17:30:53;24.80;91.90
21672;DHT22;10997;52.242;8.168;2022-08-21T17:35:55;24.70;92.30
21672;DHT22;10997;52.242;8.168;2022-08-21T17:40:57;24.60;92.50
21672;DHT22;10997;52.242;8.168;2022-08-21T17:45:58;24.60;92.50
21672;DHT22;10997;52.242;8.168;2022-08-21T17:50:59;24.50;92.70
21672;DHT22;10997;52.242;8.168;2022-08-21T17:56:00;24.30;92.90
21672;DHT22;10997;52.242;8.168;2022-08-21T18:01:02;23.90;94.00
21672;DHT22;10997;52.242;8.168;2022-08-21T18:06:03;23.80;95.30
21672;DHT22;10997;52.242;8.168;2022-08-21T18:11:04;23.60;96.00
21672;DHT22;10997;52.242;8.168;2022-08-21T18:16:05;23.30;97.00
21672;DHT22;10997;52.242;8.168;2022-08-21T18:21:06;23.00;97.80
21672;DHT22;10997;52.242;8.168;2022-08-21T18:26:07;22.90;98.10
21672;DHT22;10997;52.242;8.168;2022-08-21T18:31:10;22.60;98.20
21672;DHT22;10997;52.242;8.168;2022-08-21T18:36:11;22.30;99.50
21672;DHT22;10997;52.242;8.168;2022-08-21T18:41:11;22.00;99.90
21672;DHT22;10997;52.242;8.168;2022-08-21T18:46:12;21.90;99.90
21672;DHT22;10997;52.242;8.168;2022-08-21T18:51:13;21.70;99.90
21672;DHT22;10997;52.242;8.168;2022-08-21T18:56:14;21.40;99.90
21672;DHT22;10997;52.242;8.168;2022-08-21T19:01:14;21.20;99.90
21672;DHT22;10997;52.242;8.168;2022-08-21T19:06:15;21.10;99.90
21672;DHT22;10997;52.242;8.168;2022-08-21T19:11:16;20.90;99.90
21672;DHT22;10997;52.242;8.168;2022-08-21T19:16:17;20.70;99.90
21672;DHT22;10997;52.242;8.168;2022-08-21T19:21:19;20.50;99.90
21672;DHT22;10997;52.242;8.168;2022-08-21T19:26:22;20.40;99.90
21672;DHT22;10997;52.242;8.168;2022-08-21T19:31:26;20.30;99.90
21672;DHT22;10997;52.242;8.168;2022-08-21T19:36:28;20.20;99.90
21672;DHT22;10997;52.242;8.168;2022-08-21T19:41:31;20.00;99.90
21672;DHT22;10997;52.242;8.168;2022-08-21T19:46:36;19.90;99.90
21672;DHT22;10997;52.242;8.168;2022-08-21T19:51:37;19.70;99.90
21672;DHT22;10997;52.242;8.168;2022-08-21T19:56:38;19.70;99.90
21672;DHT22;10997;52.242;8.168;2022-08-21T20:01:38;19.60;99.90
21672;DHT22;10997;52.242;8.168;2022-08-21T20:06:40;19.50;99.90
21672;DHT22;10997;52.242;8.168;2022-08-21T20:11:44;19.40;99.90
21672;DHT22;10997;52.242;8.168;2022-08-21T20:16:47;19.30;99.90
21672;DHT22;10997;52.242;8.168;2022-08-21T20:21:48;19.30;99.90
21672;DHT22;10997;52.242;8.168;2022-08-21T20:26:49;19.00;99.90
21672;DHT22;10997;52.242;8.168;2022-08-21T20:31:50;18.90;99.90
21672;DHT22;10997;52.242;8.168;2022-08-21T20:36:50;18.80;99.90
21672;DHT22;10997;52.242;8.168;2022-08-21T20:41:53;18.30;99.90
21672;DHT22;10997;52.242;8.168;2022-08-21T20:46:54;18.10;99.90
21672;DHT22;10997;52.242;8.168;2022-08-21T20:51:56;18.20;99.90
21672;DHT22;10997;52.242;8.168;2022-08-21T20:57:13;18.20;99.90
21672;DHT22;10997;52.242;8.168;2022-08-21T21:08:11;18.20;99.90
21672;DHT22;10997;52.242;8.168;2022-08-21T21:18:29;18.10;99.90
21672;DHT22;10997;52.242;8.168;2022-08-21T21:23:43;18.10;99.90
21672;DHT22;10997;52.242;8.168;2022-08-21T21:29:05;18.00;99.90
21672;DHT22;10997;52.242;8.168;2022-08-21T21:34:08;18.00;99.90
21672;DHT22;10997;52.242;8.168;2022-08-21T21:39:19;17.90;99.90
21672;DHT22;10997;52.242;8.168;2022-08-21T22:00:33;17.50;99.90
21672;DHT22;10997;52.242;8.168;2022-08-21T22:06:00;17.40;99.90
21672;DHT22;10997;52.242;8.168;2022-08-21T22:11:14;17.40;99.90
21672;DHT22;10997;52.242;8.168;2022-08-21T22:16:18;17.30;99.90
21672;DHT22;10997;52.242;8.168;2022-08-21T22:21:32;17.30;99.90
21672;DHT22;10997;52.242;8.168;2022-08-21T22:26:43;17.30;99.90
21672;DHT22;10997;52.242;8.168;2022-08-21T22:32:02;17.40;99.90
21672;DHT22;10997;52.242;8.168;2022-08-21T22:37:08;17.40;99.90
21672;DHT22;10997;52.242;8.168;2022-08-21T22:42:24;17.40;99.90
21672;DHT22;10997;52.242;8.168;2022-08-21T22:52:36;17.30;99.90
21672;DHT22;10997;52.242;8.168;2022-08-21T22:57:44;17.30;99.90
21672;DHT22;10997;52.242;8.168;2022-08-21T23:07:49;17.10;99.90
21672;DHT22;10997;52.242;8.168;2022-08-21T23:12:53;16.90;99.90
21672;DHT22;10997;52.242;8.168;2022-08-21T23:18:17;16.80;99.90
21672;DHT22;10997;52.242;8.168;2022-08-21T23:23:27;16.80;99.90
21672;DHT22;10997;52.242;8.168;2022-08-21T23:44:52;16.70;99.90
